Boulder, Wyoming
Current Conditions -  °F | °C
As of 8:15 PM on Saturday 20 Dec 2014 (Local Time) from KPNA Reporting Station
Broken Clouds Broken Clouds  
Wind Chill: 14°   Ceiling: 4100
Heat Index: 21°   Visibility: 10mi
Dew Point: 21°   Wind: 6mph
Humidity: 100%   Direction: 310°NW
Pressure: 29.97"   Gusts: NA
Location:  42.75°N, 109.72°W
Report Text: KPNA 210315Z AUTO 31005KT 10SM BKN041 BKN050 M06/M06 A2997 RMK AO2
Loading
Personal Weather Stations






























Interactive Weather Map New forecast layout! Learn more

10-Day Weather Forecast

Advertisements
Track Severe Weather on mobile